Arikun — 3EKY2 — position and weather

sailwx.info

Track history (hours):
 
Tides and Currents Weather Stations Pressure Air Temp Water Temp Dewpoint Dewpoint Depression Visibility Wind Speed Wind Dir Waves Ship Positions

Arikun

Last reported at 2016-Jun-03 18:22 UTC. Time now 2016-Jul-01 09:58 UTC.
Position N 02°12' E 101°59'.
Warning: this ship's position is 27 days out of date.

Length 112 m; draft 8 m.

Type: Cargo ship. MMSI: 372870000.

Date/timePositionNaut miles runAvg speedWind from/ knotsBaromVisibWave heightAir tempDewpointWater temp
2016-Jun-03 18:22N 02°12' E 101°59'2612.8
2016-Jun-03 16:20N 01°56' E 102°19'1012.3
2016-Jun-03 15:31N 01°52' E 102°28'1211.9
2016-Jun-03 14:33N 01°47' E 102°39'1110.9
2016-Jun-03 13:33N 01°42' E 102°48'6710.6
2016-Jun-03 07:11N 01°10' E 103°47'710.6
2016-Jun-03 06:32N 01°14' E 103°54'2 1.8
2016-Jun-03 05:28N 01°15' E 103°53'0 0.0
2016-Jun-03 03:28N 01°15' E 103°53'0 0.1
2016-Jun-03 02:22N 01°15' E 103°53'0 0.0
2016-Jun-03 01:28N 01°15' E 103°53'0 0.0
2016-Jun-03 00:28N 01°15' E 103°53'0 0.0
2016-Jun-02 23:31N 01°15' E 103°53'0 0.0
2016-Jun-02 21:28N 01°15' E 103°53'0 0.0
2016-Jun-02 19:28N 01°15' E 103°53'0 0.0
2016-Jun-02 17:19N 01°15' E 103°53'2 2.0
2016-Jun-02 16:30N 01°14' E 103°53'5 4.9
2016-Jun-02 15:33N 01°15' E 103°58'  
2016-May-28 04:08N 22°05' E 113°49'6 9.6
2016-May-28 03:33N 22°11' E 113°47'3210.4
2016-May-28 00:31N 22°42' E 113°41'8 0.5
2016-May-27 08:07N 22°48' E 113°36'18 6.5
2016-May-27 05:19N 23°05' E 113°27'0 0.0
2016-May-27 04:25N 23°05' E 113°27'0 0.0
2016-May-27 03:31N 23°05' E 113°27'0 0.0
2016-May-27 02:25N 23°05' E 113°27'0 0.0
2016-May-27 01:31N 23°05' E 113°27'0 0.0
2016-May-26 20:25N 23°05' E 113°27'0 0.0
2016-May-26 16:13N 23°05' E 113°27'0 0.0
2016-May-26 14:13N 23°05' E 113°27'0 0.0
2016-May-26 13:13N 23°05' E 113°27'0 0.0
2016-May-26 12:25N 23°05' E 113°27'0 0.0
2016-May-26 11:07N 23°05' E 113°27'0 0.0
2016-May-26 09:25N 23°05' E 113°27'0 0.0
2016-May-26 07:31N 23°05' E 113°27'0 0.0
2016-May-26 06:31N 23°05' E 113°27'0 0.0
2016-May-26 03:31N 23°05' E 113°27'0 0.0
2016-May-26 02:31N 23°05' E 113°27'0 0.0
2016-May-26 01:31N 23°05' E 113°27'0 0.0
2016-May-26 00:25N 23°05' E 113°27'0 0.0
2016-May-25 23:25N 23°05' E 113°27'0 0.0
2016-May-25 22:31N 23°05' E 113°27'0 0.0
2016-May-25 21:25N 23°05' E 113°27'0 0.0
2016-May-25 20:19N 23°05' E 113°27'0 0.0
2016-May-25 19:31N 23°05' E 113°27'0 0.0
2016-May-25 18:31N 23°05' E 113°27'0 0.0
2016-May-25 17:31N 23°05' E 113°27'0 0.0
2016-May-25 16:19N 23°05' E 113°27'0 0.0
2016-May-25 15:25N 23°05' E 113°27'0 0.0
2016-May-25 13:19N 23°05' E 113°27'0 0.0
2016-May-25 12:19N 23°05' E 113°27'0 0.0
2016-May-25 11:19N 23°05' E 113°27'0 0.0
2016-May-25 10:31N 23°05' E 113°27'0 0.0
2016-May-25 09:25N 23°05' E 113°27'0 0.0
2016-May-25 08:25N 23°05' E 113°27'0 0.0
2016-May-25 07:25N 23°05' E 113°27'0 0.0
2016-May-25 06:25N 23°05' E 113°27'0 0.0
2016-May-25 04:31N 23°05' E 113°27'0 0.0
2016-May-25 01:31N 23°05' E 113°27'0 0.0
2016-May-25 00:25N 23°05' E 113°27'0 0.0
2016-May-24 23:31N 23°05' E 113°27'0 0.0
2016-May-24 22:13N 23°05' E 113°27'0 0.0
2016-May-24 21:25N 23°05' E 113°27'0 0.0
2016-May-24 19:31N 23°05' E 113°27'0 0.0
2016-May-24 18:25N 23°05' E 113°27'  
Track history (hours):
 
Tides and Currents Weather Stations Pressure Air Temp Water Temp Dewpoint Dewpoint Depression Visibility Wind Speed Wind Dir Waves Ship Positions

Arikun

Last reported at 2016-Jun-03 18:22 UTC. Time now 2016-Jul-01 09:58 UTC.
Position N 02°12' E 101°59'.
Warning: this ship's position is 27 days out of date.

Length 112 m; draft 8 m.

Type: Cargo ship. MMSI: 372870000.

Date/timePositionNaut miles runAvg speedWind from/ knotsBaromVisibWave heightAir tempDewpointWater temp
2016-Jun-03 18:22N 02°12' E 101°59'2612.8
2016-Jun-03 16:20N 01°56' E 102°19'1012.3
2016-Jun-03 15:31N 01°52' E 102°28'1211.9
2016-Jun-03 14:33N 01°47' E 102°39'1110.9
2016-Jun-03 13:33N 01°42' E 102°48'6710.6
2016-Jun-03 07:11N 01°10' E 103°47'710.6
2016-Jun-03 06:32N 01°14' E 103°54'2 1.8
2016-Jun-03 05:28N 01°15' E 103°53'0 0.0
2016-Jun-03 03:28N 01°15' E 103°53'0 0.1
2016-Jun-03 02:22N 01°15' E 103°53'0 0.0
2016-Jun-03 01:28N 01°15' E 103°53'0 0.0
2016-Jun-03 00:28N 01°15' E 103°53'0 0.0
2016-Jun-02 23:31N 01°15' E 103°53'0 0.0
2016-Jun-02 21:28N 01°15' E 103°53'0 0.0
2016-Jun-02 19:28N 01°15' E 103°53'0 0.0
2016-Jun-02 17:19N 01°15' E 103°53'2 2.0
2016-Jun-02 16:30N 01°14' E 103°53'5 4.9
2016-Jun-02 15:33N 01°15' E 103°58'  
2016-May-28 04:08N 22°05' E 113°49'6 9.6
2016-May-28 03:33N 22°11' E 113°47'3210.4
2016-May-28 00:31N 22°42' E 113°41'8 0.5
2016-May-27 08:07N 22°48' E 113°36'18 6.5
2016-May-27 05:19N 23°05' E 113°27'0 0.0
2016-May-27 04:25N 23°05' E 113°27'0 0.0
2016-May-27 03:31N 23°05' E 113°27'0 0.0
2016-May-27 02:25N 23°05' E 113°27'0 0.0
2016-May-27 01:31N 23°05' E 113°27'0 0.0
2016-May-26 20:25N 23°05' E 113°27'0 0.0
2016-May-26 16:13N 23°05' E 113°27'0 0.0
2016-May-26 14:13N 23°05' E 113°27'0 0.0
2016-May-26 13:13N 23°05' E 113°27'0 0.0
2016-May-26 12:25N 23°05' E 113°27'0 0.0
2016-May-26 11:07N 23°05' E 113°27'0 0.0
2016-May-26 09:25N 23°05' E 113°27'0 0.0
2016-May-26 07:31N 23°05' E 113°27'0 0.0
2016-May-26 06:31N 23°05' E 113°27'0 0.0
2016-May-26 03:31N 23°05' E 113°27'0 0.0
2016-May-26 02:31N 23°05' E 113°27'0 0.0
2016-May-26 01:31N 23°05' E 113°27'0 0.0
2016-May-26 00:25N 23°05' E 113°27'0 0.0
2016-May-25 23:25N 23°05' E 113°27'0 0.0
2016-May-25 22:31N 23°05' E 113°27'0 0.0
2016-May-25 21:25N 23°05' E 113°27'0 0.0
2016-May-25 20:19N 23°05' E 113°27'0 0.0
2016-May-25 19:31N 23°05' E 113°27'0 0.0
2016-May-25 18:31N 23°05' E 113°27'0 0.0
2016-May-25 17:31N 23°05' E 113°27'0 0.0
2016-May-25 16:19N 23°05' E 113°27'0 0.0
2016-May-25 15:25N 23°05' E 113°27'0 0.0
2016-May-25 13:19N 23°05' E 113°27'0 0.0
2016-May-25 12:19N 23°05' E 113°27'0 0.0
2016-May-25 11:19N 23°05' E 113°27'0 0.0
2016-May-25 10:31N 23°05' E 113°27'0 0.0
2016-May-25 09:25N 23°05' E 113°27'0 0.0
2016-May-25 08:25N 23°05' E 113°27'0 0.0
2016-May-25 07:25N 23°05' E 113°27'0 0.0
2016-May-25 06:25N 23°05' E 113°27'0 0.0
2016-May-25 04:31N 23°05' E 113°27'0 0.0
2016-May-25 01:31N 23°05' E 113°27'0 0.0
2016-May-25 00:25N 23°05' E 113°27'0 0.0
2016-May-24 23:31N 23°05' E 113°27'0 0.0
2016-May-24 22:13N 23°05' E 113°27'0 0.0
2016-May-24 21:25N 23°05' E 113°27'0 0.0
2016-May-24 19:31N 23°05' E 113°27'0 0.0
2016-May-24 18:25N 23°05' E 113°27'  

Dump ship's entire track history